sensor_id;sensor_type;location;lat;lon;timestamp;temperature;humidity
66670;DHT22;53568;52.164;4.472;2022-08-07T00:01:03;18.97;59.79
66670;DHT22;53568;52.164;4.472;2022-08-07T00:03:29;18.93;59.79
66670;DHT22;53568;52.164;4.472;2022-08-07T00:05:54;18.90;59.81
66670;DHT22;53568;52.164;4.472;2022-08-07T00:08:20;18.87;59.91
66670;DHT22;53568;52.164;4.472;2022-08-07T00:10:50;18.90;60.08
66670;DHT22;53568;52.164;4.472;2022-08-07T00:13:17;18.83;60.26
66670;DHT22;53568;52.164;4.472;2022-08-07T00:15:44;18.80;60.37
66670;DHT22;53568;52.164;4.472;2022-08-07T00:18:10;18.79;60.41
66670;DHT22;53568;52.164;4.472;2022-08-07T00:20:37;18.77;60.65
66670;DHT22;53568;52.164;4.472;2022-08-07T00:23:04;18.79;60.47
66670;DHT22;53568;52.164;4.472;2022-08-07T00:25:34;18.76;60.58
66670;DHT22;53568;52.164;4.472;2022-08-07T00:28:00;18.79;60.77
66670;DHT22;53568;52.164;4.472;2022-08-07T00:30:26;18.76;61.05
66670;DHT22;53568;52.164;4.472;2022-08-07T00:32:52;18.75;61.38
66670;DHT22;53568;52.164;4.472;2022-08-07T00:35:19;18.75;61.58
66670;DHT22;53568;52.164;4.472;2022-08-07T00:37:45;18.79;61.77
66670;DHT22;53568;52.164;4.472;2022-08-07T00:40:12;18.73;61.90
66670;DHT22;53568;52.164;4.472;2022-08-07T00:42:39;18.73;62.23
66670;DHT22;53568;52.164;4.472;2022-08-07T00:45:07;18.70;62.28
66670;DHT22;53568;52.164;4.472;2022-08-07T00:47:34;18.67;62.54
66670;DHT22;53568;52.164;4.472;2022-08-07T00:50:00;18.66;62.80
66670;DHT22;53568;52.164;4.472;2022-08-07T00:52:26;18.66;62.65
66670;DHT22;53568;52.164;4.472;2022-08-07T00:54:51;18.65;62.47
66670;DHT22;53568;52.164;4.472;2022-08-07T00:57:17;18.63;62.38
66670;DHT22;53568;52.164;4.472;2022-08-07T00:59:43;18.59;62.19
66670;DHT22;53568;52.164;4.472;2022-08-07T01:02:10;18.63;62.28
66670;DHT22;53568;52.164;4.472;2022-08-07T01:04:37;18.55;62.53
66670;DHT22;53568;52.164;4.472;2022-08-07T01:07:03;18.52;62.71
66670;DHT22;53568;52.164;4.472;2022-08-07T01:09:29;18.48;62.82
66670;DHT22;53568;52.164;4.472;2022-08-07T01:11:55;18.46;62.98
66670;DHT22;53568;52.164;4.472;2022-08-07T01:14:23;18.49;63.11
66670;DHT22;53568;52.164;4.472;2022-08-07T01:16:50;18.48;63.19
66670;DHT22;53568;52.164;4.472;2022-08-07T01:19:18;18.45;63.31
66670;DHT22;53568;52.164;4.472;2022-08-07T01:21:45;18.43;63.54
66670;DHT22;53568;52.164;4.472;2022-08-07T01:24:13;18.42;63.62
66670;DHT22;53568;52.164;4.472;2022-08-07T01:26:39;18.41;63.58
66670;DHT22;53568;52.164;4.472;2022-08-07T01:29:04;18.41;63.57
66670;DHT22;53568;52.164;4.472;2022-08-07T01:31:30;18.41;63.64
66670;DHT22;53568;52.164;4.472;2022-08-07T01:33:57;18.43;63.72
66670;DHT22;53568;52.164;4.472;2022-08-07T01:36:28;18.41;63.90
66670;DHT22;53568;52.164;4.472;2022-08-07T01:38:55;18.39;64.01
66670;DHT22;53568;52.164;4.472;2022-08-07T01:41:22;18.38;64.04
66670;DHT22;53568;52.164;4.472;2022-08-07T01:43:49;18.41;64.07
66670;DHT22;53568;52.164;4.472;2022-08-07T01:46:16;18.39;64.25
66670;DHT22;53568;52.164;4.472;2022-08-07T01:48:43;18.38;64.41
66670;DHT22;53568;52.164;4.472;2022-08-07T01:51:12;18.36;64.58
66670;DHT22;53568;52.164;4.472;2022-08-07T01:53:43;18.33;64.74
66670;DHT22;53568;52.164;4.472;2022-08-07T01:56:16;18.33;64.77
66670;DHT22;53568;52.164;4.472;2022-08-07T01:58:53;18.32;65.07
66670;DHT22;53568;52.164;4.472;2022-08-07T02:01:31;18.31;65.06
66670;DHT22;53568;52.164;4.472;2022-08-07T02:06:57;18.32;65.08
66670;DHT22;53568;52.164;4.472;2022-08-07T02:09:28;18.29;65.16
66670;DHT22;53568;52.164;4.472;2022-08-07T02:11:56;18.25;65.24
66670;DHT22;53568;52.164;4.472;2022-08-07T02:14:25;18.19;65.42
66670;DHT22;53568;52.164;4.472;2022-08-07T02:16:54;18.12;65.45
66670;DHT22;53568;52.164;4.472;2022-08-07T02:19:22;18.11;65.58
66670;DHT22;53568;52.164;4.472;2022-08-07T02:21:50;18.11;65.79
66670;DHT22;53568;52.164;4.472;2022-08-07T02:24:17;18.11;65.91
66670;DHT22;53568;52.164;4.472;2022-08-07T02:26:45;18.09;65.98
66670;DHT22;53568;52.164;4.472;2022-08-07T02:29:11;18.15;65.88
66670;DHT22;53568;52.164;4.472;2022-08-07T02:31:38;18.06;65.99
66670;DHT22;53568;52.164;4.472;2022-08-07T02:34:06;18.02;66.16
66670;DHT22;53568;52.164;4.472;2022-08-07T02:36:33;18.01;66.22
66670;DHT22;53568;52.164;4.472;2022-08-07T02:39:03;18.02;66.28
66670;DHT22;53568;52.164;4.472;2022-08-07T02:41:30;18.00;66.36
66670;DHT22;53568;52.164;4.472;2022-08-07T02:43:57;18.01;66.34
66670;DHT22;53568;52.164;4.472;2022-08-07T02:46:27;18.00;66.23
66670;DHT22;53568;52.164;4.472;2022-08-07T02:48:54;18.00;66.21
66670;DHT22;53568;52.164;4.472;2022-08-07T02:51:23;18.00;66.14
66670;DHT22;53568;52.164;4.472;2022-08-07T02:53:54;17.95;66.23
66670;DHT22;53568;52.164;4.472;2022-08-07T02:56:25;17.94;66.47
66670;DHT22;53568;52.164;4.472;2022-08-07T02:58:59;17.94;66.48
66670;DHT22;53568;52.164;4.472;2022-08-07T03:01:28;17.92;66.58
66670;DHT22;53568;52.164;4.472;2022-08-07T03:03:56;17.91;66.59
66670;DHT22;53568;52.164;4.472;2022-08-07T03:06:24;17.90;66.63
66670;DHT22;53568;52.164;4.472;2022-08-07T03:08:52;17.88;66.52
66670;DHT22;53568;52.164;4.472;2022-08-07T03:11:19;17.87;66.55
66670;DHT22;53568;52.164;4.472;2022-08-07T03:13:45;17.84;66.51
66670;DHT22;53568;52.164;4.472;2022-08-07T03:16:11;17.81;66.51
66670;DHT22;53568;52.164;4.472;2022-08-07T03:18:37;17.78;66.63
66670;DHT22;53568;52.164;4.472;2022-08-07T03:21:04;17.78;66.53
66670;DHT22;53568;52.164;4.472;2022-08-07T03:23:32;17.74;66.66
66670;DHT22;53568;52.164;4.472;2022-08-07T03:26:02;17.67;66.87
66670;DHT22;53568;52.164;4.472;2022-08-07T03:28:29;17.64;66.97
66670;DHT22;53568;52.164;4.472;2022-08-07T03:30:57;17.60;67.04
66670;DHT22;53568;52.164;4.472;2022-08-07T03:33:43;17.63;66.95
66670;DHT22;53568;52.164;4.472;2022-08-07T03:36:11;17.58;67.05
66670;DHT22;53568;52.164;4.472;2022-08-07T03:38:40;17.54;67.05
66670;DHT22;53568;52.164;4.472;2022-08-07T03:41:08;17.51;67.07
66670;DHT22;53568;52.164;4.472;2022-08-07T03:43:36;17.50;67.14
66670;DHT22;53568;52.164;4.472;2022-08-07T03:46:04;17.51;67.20
66670;DHT22;53568;52.164;4.472;2022-08-07T03:48:32;17.51;67.28
66670;DHT22;53568;52.164;4.472;2022-08-07T03:50:59;17.48;67.16
66670;DHT22;53568;52.164;4.472;2022-08-07T03:53:26;17.48;67.20
66670;DHT22;53568;52.164;4.472;2022-08-07T03:55:54;17.50;67.31
66670;DHT22;53568;52.164;4.472;2022-08-07T03:58:20;17.48;67.52
66670;DHT22;53568;52.164;4.472;2022-08-07T04:00:48;17.51;67.48
66670;DHT22;53568;52.164;4.472;2022-08-07T04:03:18;17.53;67.28
66670;DHT22;53568;52.164;4.472;2022-08-07T04:05:44;17.50;67.22
66670;DHT22;53568;52.164;4.472;2022-08-07T04:08:12;17.51;67.19
66670;DHT22;53568;52.164;4.472;2022-08-07T04:10:39;17.50;67.25
66670;DHT22;53568;52.164;4.472;2022-08-07T04:13:05;17.46;67.39
66670;DHT22;53568;52.164;4.472;2022-08-07T04:15:32;17.46;67.47
66670;DHT22;53568;52.164;4.472;2022-08-07T04:18:00;17.43;67.47
66670;DHT22;53568;52.164;4.472;2022-08-07T04:20:26;17.40;67.41
66670;DHT22;53568;52.164;4.472;2022-08-07T04:22:52;17.40;67.52
66670;DHT22;53568;52.164;4.472;2022-08-07T04:25:21;17.43;67.63
66670;DHT22;53568;52.164;4.472;2022-08-07T04:27:47;17.47;67.50
66670;DHT22;53568;52.164;4.472;2022-08-07T04:30:13;17.47;67.38
66670;DHT22;53568;52.164;4.472;2022-08-07T04:32:40;17.48;67.26
66670;DHT22;53568;52.164;4.472;2022-08-07T04:35:06;17.50;67.29
66670;DHT22;53568;52.164;4.472;2022-08-07T04:37:33;17.50;67.32
66670;DHT22;53568;52.164;4.472;2022-08-07T04:39:59;17.47;67.39
66670;DHT22;53568;52.164;4.472;2022-08-07T04:42:25;17.50;67.56
66670;DHT22;53568;52.164;4.472;2022-08-07T04:44:56;17.58;67.52
66670;DHT22;53568;52.164;4.472;2022-08-07T04:50:07;17.73;67.38
66670;DHT22;53568;52.164;4.472;2022-08-07T04:52:50;17.82;67.08
66670;DHT22;53568;52.164;4.472;2022-08-07T04:55:45;17.81;67.25
66670;DHT22;53568;52.164;4.472;2022-08-07T04:59:13;17.87;67.19
66670;DHT22;53568;52.164;4.472;2022-08-07T05:04:13;17.97;66.83
66670;DHT22;53568;52.164;4.472;2022-08-07T05:06:52;18.01;66.82
66670;DHT22;53568;52.164;4.472;2022-08-07T05:09:36;18.02;66.67
66670;DHT22;53568;52.164;4.472;2022-08-07T05:12:06;18.08;66.49
66670;DHT22;53568;52.164;4.472;2022-08-07T05:14:41;18.12;66.26
66670;DHT22;53568;52.164;4.472;2022-08-07T05:17:09;18.19;66.22
66670;DHT22;53568;52.164;4.472;2022-08-07T05:19:45;18.36;65.88
66670;DHT22;53568;52.164;4.472;2022-08-07T05:22:13;18.43;65.82
66670;DHT22;53568;52.164;4.472;2022-08-07T05:24:41;18.52;65.52
66670;DHT22;53568;52.164;4.472;2022-08-07T05:27:12;18.62;65.46
66670;DHT22;53568;52.164;4.472;2022-08-07T05:29:41;18.65;65.17
66670;DHT22;53568;52.164;4.472;2022-08-07T05:32:10;18.53;65.83
66670;DHT22;53568;52.164;4.472;2022-08-07T05:34:37;18.53;65.71
66670;DHT22;53568;52.164;4.472;2022-08-07T05:37:05;18.60;65.92
66670;DHT22;53568;52.164;4.472;2022-08-07T05:39:34;18.67;65.77
66670;DHT22;53568;52.164;4.472;2022-08-07T05:42:02;18.72;65.68
66670;DHT22;53568;52.164;4.472;2022-08-07T05:44:29;18.70;65.70
66670;DHT22;53568;52.164;4.472;2022-08-07T05:46:55;18.76;65.62
66670;DHT22;53568;52.164;4.472;2022-08-07T05:49:21;18.87;65.45
66670;DHT22;53568;52.164;4.472;2022-08-07T05:51:48;18.95;65.07
66670;DHT22;53568;52.164;4.472;2022-08-07T05:54:16;19.06;64.73
66670;DHT22;53568;52.164;4.472;2022-08-07T05:56:43;19.14;64.53
66670;DHT22;53568;52.164;4.472;2022-08-07T05:59:15;19.20;64.34
66670;DHT22;53568;52.164;4.472;2022-08-07T06:01:44;19.24;64.29
66670;DHT22;53568;52.164;4.472;2022-08-07T06:04:13;19.27;64.11
66670;DHT22;53568;52.164;4.472;2022-08-07T06:06:39;19.30;64.01
66670;DHT22;53568;52.164;4.472;2022-08-07T06:09:06;19.28;63.67
66670;DHT22;53568;52.164;4.472;2022-08-07T06:11:32;19.33;63.31
66670;DHT22;53568;52.164;4.472;2022-08-07T06:13:59;19.35;63.16
66670;DHT22;53568;52.164;4.472;2022-08-07T06:16:28;19.40;62.54
66670;DHT22;53568;52.164;4.472;2022-08-07T06:18:56;19.44;62.20
66670;DHT22;53568;52.164;4.472;2022-08-07T06:21:23;19.47;62.00
66670;DHT22;53568;52.164;4.472;2022-08-07T06:23:49;19.50;61.89
66670;DHT22;53568;52.164;4.472;2022-08-07T06:26:15;19.55;61.66
66670;DHT22;53568;52.164;4.472;2022-08-07T06:28:52;19.58;61.40
66670;DHT22;53568;52.164;4.472;2022-08-07T06:31:18;19.58;61.27
66670;DHT22;53568;52.164;4.472;2022-08-07T06:33:44;19.58;61.03
66670;DHT22;53568;52.164;4.472;2022-08-07T06:36:10;19.60;60.92
66670;DHT22;53568;52.164;4.472;2022-08-07T06:38:36;19.61;60.59
66670;DHT22;53568;52.164;4.472;2022-08-07T06:41:06;19.64;60.50
66670;DHT22;53568;52.164;4.472;2022-08-07T06:43:36;19.68;60.29
66670;DHT22;53568;52.164;4.472;2022-08-07T06:46:03;19.70;59.77
66670;DHT22;53568;52.164;4.472;2022-08-07T06:48:28;19.78;59.09
66670;DHT22;53568;52.164;4.472;2022-08-07T06:50:59;19.85;58.62
66670;DHT22;53568;52.164;4.472;2022-08-07T06:53:28;19.89;58.67
66670;DHT22;53568;52.164;4.472;2022-08-07T06:55:55;19.95;58.01
66670;DHT22;53568;52.164;4.472;2022-08-07T06:58:22;19.81;56.88
66670;DHT22;53568;52.164;4.472;2022-08-07T07:00:49;19.68;57.66
66670;DHT22;53568;52.164;4.472;2022-08-07T07:03:15;19.79;57.69
66670;DHT22;53568;52.164;4.472;2022-08-07T07:05:42;19.70;55.63
66670;DHT22;53568;52.164;4.472;2022-08-07T07:08:08;19.77;55.98
66670;DHT22;53568;52.164;4.472;2022-08-07T07:10:36;19.58;55.74
66670;DHT22;53568;52.164;4.472;2022-08-07T07:13:09;19.53;55.59
66670;DHT22;53568;52.164;4.472;2022-08-07T07:15:49;19.65;54.81
66670;DHT22;53568;52.164;4.472;2022-08-07T07:18:24;19.74;54.95
66670;DHT22;53568;52.164;4.472;2022-08-07T07:20:57;19.87;55.01
66670;DHT22;53568;52.164;4.472;2022-08-07T07:23:24;19.85;54.86
66670;DHT22;53568;52.164;4.472;2022-08-07T07:25:55;19.64;55.49
66670;DHT22;53568;52.164;4.472;2022-08-07T07:28:25;19.58;55.77
66670;DHT22;53568;52.164;4.472;2022-08-07T07:31:27;19.64;55.83
66670;DHT22;53568;52.164;4.472;2022-08-07T07:33:58;19.71;55.77
66670;DHT22;53568;52.164;4.472;2022-08-07T07:36:27;19.82;55.55
66670;DHT22;53568;52.164;4.472;2022-08-07T07:38:54;19.97;55.25
66670;DHT22;53568;52.164;4.472;2022-08-07T07:41:21;20.12;55.08
66670;DHT22;53568;52.164;4.472;2022-08-07T07:43:51;20.17;54.40
66670;DHT22;53568;52.164;4.472;2022-08-07T07:46:18;20.11;54.37
66670;DHT22;53568;52.164;4.472;2022-08-07T07:48:49;20.15;54.40
66670;DHT22;53568;52.164;4.472;2022-08-07T07:51:18;20.29;54.01
66670;DHT22;53568;52.164;4.472;2022-08-07T07:53:46;20.33;53.49
66670;DHT22;53568;52.164;4.472;2022-08-07T07:56:13;20.35;53.26
66670;DHT22;53568;52.164;4.472;2022-08-07T07:58:41;20.46;52.78
66670;DHT22;53568;52.164;4.472;2022-08-07T08:01:09;20.61;52.49
66670;DHT22;53568;52.164;4.472;2022-08-07T08:03:37;20.65;52.66
66670;DHT22;53568;52.164;4.472;2022-08-07T08:06:05;20.68;53.06
66670;DHT22;53568;52.164;4.472;2022-08-07T08:08:33;20.77;52.51
66670;DHT22;53568;52.164;4.472;2022-08-07T08:11:02;20.86;51.41
66670;DHT22;53568;52.164;4.472;2022-08-07T08:13:30;20.79;51.82
66670;DHT22;53568;52.164;4.472;2022-08-07T08:15:57;20.76;51.58
66670;DHT22;53568;52.164;4.472;2022-08-07T08:18:27;20.79;51.69
66670;DHT22;53568;52.164;4.472;2022-08-07T08:20:57;20.90;51.09
66670;DHT22;53568;52.164;4.472;2022-08-07T08:23:27;21.02;51.03
66670;DHT22;53568;52.164;4.472;2022-08-07T08:26:15;20.90;51.88
66670;DHT22;53568;52.164;4.472;2022-08-07T08:29:02;20.97;51.70
66670;DHT22;53568;52.164;4.472;2022-08-07T08:31:32;20.93;51.50
66670;DHT22;53568;52.164;4.472;2022-08-07T08:34:04;21.04;51.33
66670;DHT22;53568;52.164;4.472;2022-08-07T08:36:33;21.04;49.46
66670;DHT22;53568;52.164;4.472;2022-08-07T08:39:00;20.86;48.81
66670;DHT22;53568;52.164;4.472;2022-08-07T08:47:04;20.25;50.48
66670;DHT22;53568;52.164;4.472;2022-08-07T08:52:11;20.39;50.05
66670;DHT22;53568;52.164;4.472;2022-08-07T08:55:13;20.66;50.92
66670;DHT22;53568;52.164;4.472;2022-08-07T08:57:55;20.73;52.32
66670;DHT22;53568;52.164;4.472;2022-08-07T09:00:28;20.76;52.16
66670;DHT22;53568;52.164;4.472;2022-08-07T09:03:10;20.86;52.16
66670;DHT22;53568;52.164;4.472;2022-08-07T09:06:05;21.03;52.28
66670;DHT22;53568;52.164;4.472;2022-08-07T09:11:49;20.97;52.66
66670;DHT22;53568;52.164;4.472;2022-08-07T09:14:37;20.96;53.34
66670;DHT22;53568;52.164;4.472;2022-08-07T09:17:20;20.71;53.71
66670;DHT22;53568;52.164;4.472;2022-08-07T09:20:17;20.71;53.23
66670;DHT22;53568;52.164;4.472;2022-08-07T09:23:02;20.53;53.82
66670;DHT22;53568;52.164;4.472;2022-08-07T09:26:32;20.41;53.98
66670;DHT22;53568;52.164;4.472;2022-08-07T09:28:40;20.39;53.71
66670;DHT22;53568;52.164;4.472;2022-08-07T09:31:22;20.51;53.63
66670;DHT22;53568;52.164;4.472;2022-08-07T09:34:07;20.75;53.40
66670;DHT22;53568;52.164;4.472;2022-08-07T09:37:00;20.86;53.42
66670;DHT22;53568;52.164;4.472;2022-08-07T09:39:45;20.66;53.07
66670;DHT22;53568;52.164;4.472;2022-08-07T09:42:42;20.83;52.63
66670;DHT22;53568;52.164;4.472;2022-08-07T09:45:28;20.96;51.89
66670;DHT22;53568;52.164;4.472;2022-08-07T09:48:12;20.82;52.16
66670;DHT22;53568;52.164;4.472;2022-08-07T09:53:40;20.76;52.39
66670;DHT22;53568;52.164;4.472;2022-08-07T10:04:16;20.90;50.87
66670;DHT22;53568;52.164;4.472;2022-08-07T10:09:18;20.92;51.35
66670;DHT22;53568;52.164;4.472;2022-08-07T10:15:00;21.17;50.58
66670;DHT22;53568;52.164;4.472;2022-08-07T10:26:30;21.46;48.19
66670;DHT22;53568;52.164;4.472;2022-08-07T10:29:10;21.41;47.62
66670;DHT22;53568;52.164;4.472;2022-08-07T10:34:38;21.27;45.48
66670;DHT22;53568;52.164;4.472;2022-08-07T10:37:27;21.23;45.39
66670;DHT22;53568;52.164;4.472;2022-08-07T10:43:06;21.16;44.55
66670;DHT22;53568;52.164;4.472;2022-08-07T10:45:39;21.44;44.44
66670;DHT22;53568;52.164;4.472;2022-08-07T10:51:06;21.31;44.84
66670;DHT22;53568;52.164;4.472;2022-08-07T10:56:22;21.43;43.61
66670;DHT22;53568;52.164;4.472;2022-08-07T10:58:58;21.50;44.64
66670;DHT22;53568;52.164;4.472;2022-08-07T11:03:55;21.58;44.68
66670;DHT22;53568;52.164;4.472;2022-08-07T11:09:21;21.30;43.83
66670;DHT22;53568;52.164;4.472;2022-08-07T11:12:03;21.26;46.65
66670;DHT22;53568;52.164;4.472;2022-08-07T11:14:45;21.11;46.64
66670;DHT22;53568;52.164;4.472;2022-08-07T11:17:29;21.06;47.53
66670;DHT22;53568;52.164;4.472;2022-08-07T11:20:23;21.00;49.08
66670;DHT22;53568;52.164;4.472;2022-08-07T11:25:52;21.26;47.84
66670;DHT22;53568;52.164;4.472;2022-08-07T11:28:38;21.40;46.93
66670;DHT22;53568;52.164;4.472;2022-08-07T11:41:52;21.02;47.64
66670;DHT22;53568;52.164;4.472;2022-08-07T11:44:51;21.06;48.40
66670;DHT22;53568;52.164;4.472;2022-08-07T11:47:47;21.02;48.13
66670;DHT22;53568;52.164;4.472;2022-08-07T12:10:00;21.73;48.78
66670;DHT22;53568;52.164;4.472;2022-08-07T12:12:58;21.74;47.39
66670;DHT22;53568;52.164;4.472;2022-08-07T12:15:33;21.50;47.22
66670;DHT22;53568;52.164;4.472;2022-08-07T12:18:06;21.51;46.46
66670;DHT22;53568;52.164;4.472;2022-08-07T12:26:28;21.54;48.64
66670;DHT22;53568;52.164;4.472;2022-08-07T12:31:46;21.65;46.81
66670;DHT22;53568;52.164;4.472;2022-08-07T12:34:15;21.81;47.41
66670;DHT22;53568;52.164;4.472;2022-08-07T12:36:44;21.88;46.98
66670;DHT22;53568;52.164;4.472;2022-08-07T12:39:12;22.08;47.47
66670;DHT22;53568;52.164;4.472;2022-08-07T12:41:39;22.06;47.70
66670;DHT22;53568;52.164;4.472;2022-08-07T12:44:09;22.18;46.41
66670;DHT22;53568;52.164;4.472;2022-08-07T12:55:21;22.38;46.34
66670;DHT22;53568;52.164;4.472;2022-08-07T12:57:50;22.28;45.85
66670;DHT22;53568;52.164;4.472;2022-08-07T13:00:17;22.05;47.00
66670;DHT22;53568;52.164;4.472;2022-08-07T13:03:18;21.81;47.85
66670;DHT22;53568;52.164;4.472;2022-08-07T13:08:39;21.80;46.69
66670;DHT22;53568;52.164;4.472;2022-08-07T13:16:46;21.67;46.78
66670;DHT22;53568;52.164;4.472;2022-08-07T13:19:32;21.71;47.84
66670;DHT22;53568;52.164;4.472;2022-08-07T13:22:23;21.60;48.15
66670;DHT22;53568;52.164;4.472;2022-08-07T13:25:02;21.60;48.81
66670;DHT22;53568;52.164;4.472;2022-08-07T13:27:44;21.68;48.54
66670;DHT22;53568;52.164;4.472;2022-08-07T13:30:12;21.61;48.74
66670;DHT22;53568;52.164;4.472;2022-08-07T13:32:54;21.19;50.84
66670;DHT22;53568;52.164;4.472;2022-08-07T13:35:38;21.23;50.05
66670;DHT22;53568;52.164;4.472;2022-08-07T13:38:21;21.31;49.47
66670;DHT22;53568;52.164;4.472;2022-08-07T13:43:19;21.11;50.98
66670;DHT22;53568;52.164;4.472;2022-08-07T13:45:54;21.04;50.61
66670;DHT22;53568;52.164;4.472;2022-08-07T13:48:23;20.96;51.68
66670;DHT22;53568;52.164;4.472;2022-08-07T13:50:52;20.86;51.60
66670;DHT22;53568;52.164;4.472;2022-08-07T13:53:22;21.13;51.35
66670;DHT22;53568;52.164;4.472;2022-08-07T13:55:49;21.36;50.02
66670;DHT22;53568;52.164;4.472;2022-08-07T13:58:17;21.31;51.04
66670;DHT22;53568;52.164;4.472;2022-08-07T14:01:14;21.13;50.49
66670;DHT22;53568;52.164;4.472;2022-08-07T14:03:41;21.27;50.56
66670;DHT22;53568;52.164;4.472;2022-08-07T14:06:10;21.49;48.66
66670;DHT22;53568;52.164;4.472;2022-08-07T14:08:46;21.61;47.37
66670;DHT22;53568;52.164;4.472;2022-08-07T14:11:15;21.67;48.65
66670;DHT22;53568;52.164;4.472;2022-08-07T14:13:46;21.41;49.14
66670;DHT22;53568;52.164;4.472;2022-08-07T14:16:23;21.51;49.12
66670;DHT22;53568;52.164;4.472;2022-08-07T14:18:52;21.40;49.16
66670;DHT22;53568;52.164;4.472;2022-08-07T14:21:48;21.47;49.53
66670;DHT22;53568;52.164;4.472;2022-08-07T14:24:24;21.53;48.82
66670;DHT22;53568;52.164;4.472;2022-08-07T14:26:59;21.81;48.63
66670;DHT22;53568;52.164;4.472;2022-08-07T14:29:31;21.73;49.05
66670;DHT22;53568;52.164;4.472;2022-08-07T14:32:03;21.81;49.79
66670;DHT22;53568;52.164;4.472;2022-08-07T14:34:35;21.87;49.75
66670;DHT22;53568;52.164;4.472;2022-08-07T14:37:08;21.70;49.32
66670;DHT22;53568;52.164;4.472;2022-08-07T14:39:43;21.54;49.60
66670;DHT22;53568;52.164;4.472;2022-08-07T14:42:11;21.46;49.89
66670;DHT22;53568;52.164;4.472;2022-08-07T14:44:46;21.50;50.48
66670;DHT22;53568;52.164;4.472;2022-08-07T14:47:16;21.46;49.74
66670;DHT22;53568;52.164;4.472;2022-08-07T14:49:43;21.57;51.30
66670;DHT22;53568;52.164;4.472;2022-08-07T14:52:29;21.71;50.68
66670;DHT22;53568;52.164;4.472;2022-08-07T14:55:00;21.54;51.74
66670;DHT22;53568;52.164;4.472;2022-08-07T14:57:30;21.37;51.14
66670;DHT22;53568;52.164;4.472;2022-08-07T14:59:58;21.44;51.65
66670;DHT22;53568;52.164;4.472;2022-08-07T15:02:26;21.36;52.02
66670;DHT22;53568;52.164;4.472;2022-08-07T15:04:53;21.27;52.76
66670;DHT22;53568;52.164;4.472;2022-08-07T15:07:21;21.44;52.69
66670;DHT22;53568;52.164;4.472;2022-08-07T15:09:50;21.65;50.51
66670;DHT22;53568;52.164;4.472;2022-08-07T15:12:22;21.75;50.46
66670;DHT22;53568;52.164;4.472;2022-08-07T15:14:52;21.91;50.90
66670;DHT22;53568;52.164;4.472;2022-08-07T15:17:26;22.06;50.15
66670;DHT22;53568;52.164;4.472;2022-08-07T15:19:59;22.12;50.39
66670;DHT22;53568;52.164;4.472;2022-08-07T15:22:41;22.22;51.09
66670;DHT22;53568;52.164;4.472;2022-08-07T15:25:13;22.26;51.15
66670;DHT22;53568;52.164;4.472;2022-08-07T15:27:41;22.19;51.82
66670;DHT22;53568;52.164;4.472;2022-08-07T15:30:10;22.16;52.23
66670;DHT22;53568;52.164;4.472;2022-08-07T15:32:54;22.12;51.39
66670;DHT22;53568;52.164;4.472;2022-08-07T15:35:24;22.01;52.01
66670;DHT22;53568;52.164;4.472;2022-08-07T15:37:53;21.88;52.08
66670;DHT22;53568;52.164;4.472;2022-08-07T15:40:22;21.92;52.42
66670;DHT22;53568;52.164;4.472;2022-08-07T15:43:03;21.82;52.45
66670;DHT22;53568;52.164;4.472;2022-08-07T15:45:36;21.71;53.22
66670;DHT22;53568;52.164;4.472;2022-08-07T15:50:42;21.47;54.26
66670;DHT22;53568;52.164;4.472;2022-08-07T15:53:11;21.60;53.28
66670;DHT22;53568;52.164;4.472;2022-08-07T15:55:42;21.62;53.68
66670;DHT22;53568;52.164;4.472;2022-08-07T15:58:12;21.30;54.18
66670;DHT22;53568;52.164;4.472;2022-08-07T16:00:38;21.13;55.37
66670;DHT22;53568;52.164;4.472;2022-08-07T16:03:17;21.13;55.61
66670;DHT22;53568;52.164;4.472;2022-08-07T16:05:47;21.17;56.11
66670;DHT22;53568;52.164;4.472;2022-08-07T16:08:22;21.28;56.26
66670;DHT22;53568;52.164;4.472;2022-08-07T16:11:05;21.31;55.91
66670;DHT22;53568;52.164;4.472;2022-08-07T16:14:03;21.40;56.56
66670;DHT22;53568;52.164;4.472;2022-08-07T16:21:58;21.27;56.16
66670;DHT22;53568;52.164;4.472;2022-08-07T16:24:35;21.20;56.36
66670;DHT22;53568;52.164;4.472;2022-08-07T16:27:27;21.04;55.74
66670;DHT22;53568;52.164;4.472;2022-08-07T16:30:09;21.08;57.63
66670;DHT22;53568;52.164;4.472;2022-08-07T16:32:50;21.14;57.01
66670;DHT22;53568;52.164;4.472;2022-08-07T16:35:42;21.16;56.55
66670;DHT22;53568;52.164;4.472;2022-08-07T16:44:04;21.00;57.46
66670;DHT22;53568;52.164;4.472;2022-08-07T16:49:55;20.97;57.81
66670;DHT22;53568;52.164;4.472;2022-08-07T16:52:53;20.72;59.45
66670;DHT22;53568;52.164;4.472;2022-08-07T16:55:25;20.75;59.18
66670;DHT22;53568;52.164;4.472;2022-08-07T16:58:00;20.80;59.44
66670;DHT22;53568;52.164;4.472;2022-08-07T17:00:39;20.97;59.73
66670;DHT22;53568;52.164;4.472;2022-08-07T17:03:18;21.02;59.54
66670;DHT22;53568;52.164;4.472;2022-08-07T17:06:06;21.14;58.80
66670;DHT22;53568;52.164;4.472;2022-08-07T17:11:59;21.36;58.45
66670;DHT22;53568;52.164;4.472;2022-08-07T17:14:51;21.17;57.78
66670;DHT22;53568;52.164;4.472;2022-08-07T17:20:08;21.27;58.92
66670;DHT22;53568;52.164;4.472;2022-08-07T17:22:55;21.23;58.23
66670;DHT22;53568;52.164;4.472;2022-08-07T17:25:26;21.22;58.12
66670;DHT22;53568;52.164;4.472;2022-08-07T17:28:16;21.39;57.55
66670;DHT22;53568;52.164;4.472;2022-08-07T17:34:03;21.36;57.62
66670;DHT22;53568;52.164;4.472;2022-08-07T17:36:39;21.23;57.63
66670;DHT22;53568;52.164;4.472;2022-08-07T17:39:18;21.14;58.28
66670;DHT22;53568;52.164;4.472;2022-08-07T17:41:58;21.10;58.85
66670;DHT22;53568;52.164;4.472;2022-08-07T17:44:50;21.00;59.23
66670;DHT22;53568;52.164;4.472;2022-08-07T17:47:47;21.03;58.80
66670;DHT22;53568;52.164;4.472;2022-08-07T17:50:21;20.82;59.37
66670;DHT22;53568;52.164;4.472;2022-08-07T17:52:57;20.87;58.59
66670;DHT22;53568;52.164;4.472;2022-08-07T17:55:47;21.02;57.96
66670;DHT22;53568;52.164;4.472;2022-08-07T17:58:24;20.96;58.50
66670;DHT22;53568;52.164;4.472;2022-08-07T18:00:56;21.06;58.52
66670;DHT22;53568;52.164;4.472;2022-08-07T18:03:34;21.07;57.56
66670;DHT22;53568;52.164;4.472;2022-08-07T18:06:12;20.80;57.81
66670;DHT22;53568;52.164;4.472;2022-08-07T18:11:14;20.73;59.58
66670;DHT22;53568;52.164;4.472;2022-08-07T18:13:58;20.75;59.87
66670;DHT22;53568;52.164;4.472;2022-08-07T18:19:24;20.48;61.65
66670;DHT22;53568;52.164;4.472;2022-08-07T18:22:04;20.43;62.44
66670;DHT22;53568;52.164;4.472;2022-08-07T18:24:49;20.42;62.45
66670;DHT22;53568;52.164;4.472;2022-08-07T18:38:20;20.05;63.86
66670;DHT22;53568;52.164;4.472;2022-08-07T18:54:50;19.91;63.51
66670;DHT22;53568;52.164;4.472;2022-08-07T19:00:06;20.01;62.50
66670;DHT22;53568;52.164;4.472;2022-08-07T19:02:51;20.11;62.25
66670;DHT22;53568;52.164;4.472;2022-08-07T19:05:30;20.14;62.03
66670;DHT22;53568;52.164;4.472;2022-08-07T19:08:06;20.17;61.92